Test- Nakhimov — EMGO — position and weather

sailwx.info

Track history (hours):
 
Tides and Currents Weather Stations Pressure Air Temp Water Temp Dewpoint Dewpoint Depression Visibility Wind Speed Wind Dir Waves Ship Positions

Test- Nakhimov

Last reported at 2017-Dec-11 09:15 UTC. Time now 2017-Dec-13 09:19 UTC.
Position N 47°35' E 035°02'.

Length 25 m; draft 2.3 m.

Type: Tug. MMSI: 272000111.

Date/timePositionNaut miles runAvg speedWind from/ knotsBaromVisibWave heightAir tempDewpointWater temp
2017-Dec-11 09:15N 47°35' E 035°02'2 3.3
2017-Dec-11 08:45N 47°36' E 035°02'4 4.0
2017-Dec-11 07:43N 47°39' E 035°07'1 5.7
2017-Dec-11 07:30N 47°40' E 035°07'3 5.4
2017-Dec-11 06:55N 47°43' E 035°09'2 4.8
2017-Dec-11 06:30N 47°45' E 035°10'2 4.7
2017-Dec-11 06:01N 47°48' E 035°10'1 2.2
2017-Dec-11 05:30N 47°49' E 035°09'0 0.0
2017-Dec-11 05:00N 47°49' E 035°09'0 0.0
2017-Dec-11 04:31N 47°49' E 035°09'0 0.0
2017-Dec-11 04:01N 47°49' E 035°09'0 0.0
2017-Dec-11 03:30N 47°49' E 035°09'0 0.0
2017-Dec-11 03:01N 47°49' E 035°09'0 0.0
2017-Dec-11 02:30N 47°49' E 035°09'0 0.0
2017-Dec-11 02:00N 47°49' E 035°09'0 0.0
2017-Dec-11 01:30N 47°49' E 035°09'0 0.0
2017-Dec-11 01:00N 47°49' E 035°09'0 0.0
2017-Dec-11 00:30N 47°49' E 035°09'0 0.0
2017-Dec-11 00:01N 47°49' E 035°09'0 0.0
2017-Dec-10 23:30N 47°49' E 035°09'0 0.0
2017-Dec-10 23:00N 47°49' E 035°09'0 0.0
2017-Dec-10 22:30N 47°49' E 035°09'0 0.0
2017-Dec-10 22:01N 47°49' E 035°09'0 0.0
2017-Dec-10 21:31N 47°49' E 035°09'0 0.0
2017-Dec-10 21:01N 47°49' E 035°09'0 0.0
2017-Dec-10 20:31N 47°49' E 035°09'0 0.0
2017-Dec-10 20:00N 47°49' E 035°09'0 0.0
2017-Dec-10 19:31N 47°49' E 035°09'0 0.0
2017-Dec-10 19:00N 47°49' E 035°09'0 0.0
2017-Dec-10 18:30N 47°49' E 035°09'0 0.0
2017-Dec-10 18:00N 47°49' E 035°09'0 0.0
2017-Dec-10 17:31N 47°49' E 035°09'0 0.0
2017-Dec-10 17:00N 47°49' E 035°09'0 0.0
2017-Dec-10 16:30N 47°49' E 035°09'0 0.0
2017-Dec-10 16:00N 47°49' E 035°09'0 0.0
2017-Dec-10 15:30N 47°49' E 035°09'0 0.0
2017-Dec-10 15:00N 47°49' E 035°09'0 0.0
2017-Dec-10 14:30N 47°49' E 035°09'1 2.2
2017-Dec-10 14:00N 47°49' E 035°08'2 4.8
2017-Dec-10 13:30N 47°51' E 035°05'1 2.0
2017-Dec-10 12:59N 47°52' E 035°06'0 0.2
2017-Dec-10 12:31N 47°52' E 035°06'1 3.0
2017-Dec-10 12:01N 47°53' E 035°06'2 3.1
2017-Dec-10 11:30N 47°55' E 035°07'2 3.3
2017-Dec-10 11:00N 47°57' E 035°07'2 4.4
2017-Dec-10 10:30N 47°59' E 035°07'3 5.2
2017-Dec-10 10:01N 48°01' E 035°08'3 5.1
2017-Dec-10 09:30N 48°03' E 035°06'  
2017-Dec-02 13:00N 48°03' E 035°07'3 6.2
2017-Dec-02 12:30N 47°60' E 035°08'3 6.5
2017-Dec-02 12:00N 47°56' E 035°07'3 6.1
2017-Dec-02 11:30N 47°53' E 035°06'0 0.0
2017-Dec-02 11:00N 47°53' E 035°06'1 1.8
2017-Dec-02 10:30N 47°54' E 035°06'1 3.0
2017-Dec-02 10:00N 47°53' E 035°06'1 1.9
2017-Dec-02 09:30N 47°52' E 035°05'0 0.0
2017-Dec-02 09:00N 47°52' E 035°06'1 2.9
2017-Dec-02 08:30N 47°50' E 035°05'3 5.4
2017-Dec-02 08:00N 47°49' E 035°09'0 0.9
2017-Dec-02 07:30N 47°49' E 035°09'0 0.1
2017-Dec-02 07:00N 47°49' E 035°09'0 0.0
2017-Dec-02 06:30N 47°48' E 035°09'0 0.0
2017-Dec-02 06:00N 47°48' E 035°09'0 0.0
2017-Dec-02 05:30N 47°49' E 035°09'0 0.0
2017-Dec-02 05:00N 47°49' E 035°09'0 0.0
2017-Dec-02 04:30N 47°49' E 035°09'0 0.0
2017-Dec-02 04:00N 47°49' E 035°09'0 0.0
2017-Dec-02 03:30N 47°49' E 035°09'0 0.0
2017-Dec-02 03:00N 47°48' E 035°09'0 0.0
2017-Dec-02 02:30N 47°49' E 035°09'0 0.0
2017-Dec-02 02:00N 47°48' E 035°09'0 0.0
2017-Dec-02 01:30N 47°48' E 035°09'0 0.0
2017-Dec-02 01:00N 47°49' E 035°09'0 0.0
2017-Dec-02 00:30N 47°49' E 035°09'0 0.0
2017-Dec-02 00:00N 47°49' E 035°09'0 0.0
2017-Dec-01 23:30N 47°49' E 035°09'0 0.0
2017-Dec-01 23:00N 47°48' E 035°09'0 0.0
2017-Dec-01 22:30N 47°48' E 035°09'0 0.0
2017-Dec-01 22:00N 47°48' E 035°09'0 0.0
2017-Dec-01 21:30N 47°48' E 035°09'0 0.0
2017-Dec-01 21:00N 47°48' E 035°09'0 0.0
2017-Dec-01 20:30N 47°48' E 035°09'0 0.0
2017-Dec-01 20:00N 47°49' E 035°09'0 0.0
2017-Dec-01 19:30N 47°49' E 035°09'0 0.0
2017-Dec-01 19:00N 47°49' E 035°09'0 0.0
2017-Dec-01 18:30N 47°49' E 035°09'1 1.7
2017-Dec-01 18:00N 47°48' E 035°10'2 4.7
2017-Dec-01 17:30N 47°45' E 035°10'0 0.1
2017-Dec-01 17:00N 47°45' E 035°10'1 3.0
2017-Dec-01 16:30N 47°44' E 035°10'3 5.3
2017-Dec-01 16:00N 47°42' E 035°08'6 5.4
2017-Dec-01 14:58N 47°37' E 035°03'  
Track history (hours):
 
Tides and Currents Weather Stations Pressure Air Temp Water Temp Dewpoint Dewpoint Depression Visibility Wind Speed Wind Dir Waves Ship Positions

Test- Nakhimov

Last reported at 2017-Dec-11 09:15 UTC. Time now 2017-Dec-13 09:19 UTC.
Position N 47°35' E 035°02'.

Length 25 m; draft 2.3 m.

Type: Tug. MMSI: 272000111.

Date/timePositionNaut miles runAvg speedWind from/ knotsBaromVisibWave heightAir tempDewpointWater temp
2017-Dec-11 09:15N 47°35' E 035°02'2 3.3
2017-Dec-11 08:45N 47°36' E 035°02'4 4.0
2017-Dec-11 07:43N 47°39' E 035°07'1 5.7
2017-Dec-11 07:30N 47°40' E 035°07'3 5.4
2017-Dec-11 06:55N 47°43' E 035°09'2 4.8
2017-Dec-11 06:30N 47°45' E 035°10'2 4.7
2017-Dec-11 06:01N 47°48' E 035°10'1 2.2
2017-Dec-11 05:30N 47°49' E 035°09'0 0.0
2017-Dec-11 05:00N 47°49' E 035°09'0 0.0
2017-Dec-11 04:31N 47°49' E 035°09'0 0.0
2017-Dec-11 04:01N 47°49' E 035°09'0 0.0
2017-Dec-11 03:30N 47°49' E 035°09'0 0.0
2017-Dec-11 03:01N 47°49' E 035°09'0 0.0
2017-Dec-11 02:30N 47°49' E 035°09'0 0.0
2017-Dec-11 02:00N 47°49' E 035°09'0 0.0
2017-Dec-11 01:30N 47°49' E 035°09'0 0.0
2017-Dec-11 01:00N 47°49' E 035°09'0 0.0
2017-Dec-11 00:30N 47°49' E 035°09'0 0.0
2017-Dec-11 00:01N 47°49' E 035°09'0 0.0
2017-Dec-10 23:30N 47°49' E 035°09'0 0.0
2017-Dec-10 23:00N 47°49' E 035°09'0 0.0
2017-Dec-10 22:30N 47°49' E 035°09'0 0.0
2017-Dec-10 22:01N 47°49' E 035°09'0 0.0
2017-Dec-10 21:31N 47°49' E 035°09'0 0.0
2017-Dec-10 21:01N 47°49' E 035°09'0 0.0
2017-Dec-10 20:31N 47°49' E 035°09'0 0.0
2017-Dec-10 20:00N 47°49' E 035°09'0 0.0
2017-Dec-10 19:31N 47°49' E 035°09'0 0.0
2017-Dec-10 19:00N 47°49' E 035°09'0 0.0
2017-Dec-10 18:30N 47°49' E 035°09'0 0.0
2017-Dec-10 18:00N 47°49' E 035°09'0 0.0
2017-Dec-10 17:31N 47°49' E 035°09'0 0.0
2017-Dec-10 17:00N 47°49' E 035°09'0 0.0
2017-Dec-10 16:30N 47°49' E 035°09'0 0.0
2017-Dec-10 16:00N 47°49' E 035°09'0 0.0
2017-Dec-10 15:30N 47°49' E 035°09'0 0.0
2017-Dec-10 15:00N 47°49' E 035°09'0 0.0
2017-Dec-10 14:30N 47°49' E 035°09'1 2.2
2017-Dec-10 14:00N 47°49' E 035°08'2 4.8
2017-Dec-10 13:30N 47°51' E 035°05'1 2.0
2017-Dec-10 12:59N 47°52' E 035°06'0 0.2
2017-Dec-10 12:31N 47°52' E 035°06'1 3.0
2017-Dec-10 12:01N 47°53' E 035°06'2 3.1
2017-Dec-10 11:30N 47°55' E 035°07'2 3.3
2017-Dec-10 11:00N 47°57' E 035°07'2 4.4
2017-Dec-10 10:30N 47°59' E 035°07'3 5.2
2017-Dec-10 10:01N 48°01' E 035°08'3 5.1
2017-Dec-10 09:30N 48°03' E 035°06'  
2017-Dec-02 13:00N 48°03' E 035°07'3 6.2
2017-Dec-02 12:30N 47°60' E 035°08'3 6.5
2017-Dec-02 12:00N 47°56' E 035°07'3 6.1
2017-Dec-02 11:30N 47°53' E 035°06'0 0.0
2017-Dec-02 11:00N 47°53' E 035°06'1 1.8
2017-Dec-02 10:30N 47°54' E 035°06'1 3.0
2017-Dec-02 10:00N 47°53' E 035°06'1 1.9
2017-Dec-02 09:30N 47°52' E 035°05'0 0.0
2017-Dec-02 09:00N 47°52' E 035°06'1 2.9
2017-Dec-02 08:30N 47°50' E 035°05'3 5.4
2017-Dec-02 08:00N 47°49' E 035°09'0 0.9
2017-Dec-02 07:30N 47°49' E 035°09'0 0.1
2017-Dec-02 07:00N 47°49' E 035°09'0 0.0
2017-Dec-02 06:30N 47°48' E 035°09'0 0.0
2017-Dec-02 06:00N 47°48' E 035°09'0 0.0
2017-Dec-02 05:30N 47°49' E 035°09'0 0.0
2017-Dec-02 05:00N 47°49' E 035°09'0 0.0
2017-Dec-02 04:30N 47°49' E 035°09'0 0.0
2017-Dec-02 04:00N 47°49' E 035°09'0 0.0
2017-Dec-02 03:30N 47°49' E 035°09'0 0.0
2017-Dec-02 03:00N 47°48' E 035°09'0 0.0
2017-Dec-02 02:30N 47°49' E 035°09'0 0.0
2017-Dec-02 02:00N 47°48' E 035°09'0 0.0
2017-Dec-02 01:30N 47°48' E 035°09'0 0.0
2017-Dec-02 01:00N 47°49' E 035°09'0 0.0
2017-Dec-02 00:30N 47°49' E 035°09'0 0.0
2017-Dec-02 00:00N 47°49' E 035°09'0 0.0
2017-Dec-01 23:30N 47°49' E 035°09'0 0.0
2017-Dec-01 23:00N 47°48' E 035°09'0 0.0
2017-Dec-01 22:30N 47°48' E 035°09'0 0.0
2017-Dec-01 22:00N 47°48' E 035°09'0 0.0
2017-Dec-01 21:30N 47°48' E 035°09'0 0.0
2017-Dec-01 21:00N 47°48' E 035°09'0 0.0
2017-Dec-01 20:30N 47°48' E 035°09'0 0.0
2017-Dec-01 20:00N 47°49' E 035°09'0 0.0
2017-Dec-01 19:30N 47°49' E 035°09'0 0.0
2017-Dec-01 19:00N 47°49' E 035°09'0 0.0
2017-Dec-01 18:30N 47°49' E 035°09'1 1.7
2017-Dec-01 18:00N 47°48' E 035°10'2 4.7
2017-Dec-01 17:30N 47°45' E 035°10'0 0.1
2017-Dec-01 17:00N 47°45' E 035°10'1 3.0
2017-Dec-01 16:30N 47°44' E 035°10'3 5.3
2017-Dec-01 16:00N 47°42' E 035°08'6 5.4
2017-Dec-01 14:58N 47°37' E 035°03'  

Dump ship's entire track history